This is the latest recevied weather packets stored in our database for station/object LZ3SV-3. If no packets are shown the sender has not sent any weather packets the latest 10 day(s).
| Time | Temp. | Humidity | Pressure | Rain* | Wind** | Luminosity | Snow |
|---|---|---|---|---|---|---|---|
| 1778153496 | 31.11° C | 34% | 990.4 hPa | - | - | - | - |
| 1778151696 | 29.44° C | 35% | 990.8 hPa | - | - | - | - |
| 1778149896 | 27.22° C | 41% | 990.9 hPa | - | - | - | - |
| 1778148097 | 25° C | 45% | 991.2 hPa | - | - | - | - |
| 1778145096 | 21.11° C | 52% | 991.6 hPa | - | - | - | - |
| 1778143896 | 21.11° C | 52% | 991.8 hPa | - | - | - | - |
| 1778142696 | 20° C | 56% | 991.8 hPa | - | - | - | - |
| 1778142096 | 19.44° C | 58% | 991.9 hPa | - | - | - | - |
| 1778140896 | 18.33° C | 56% | 991.9 hPa | - | - | - | - |
| 1778135496 | 15° C | 76% | 992.2 hPa | - | - | - | - |
| 1778134296 | 14.44° C | 75% | 992.1 hPa | - | - | - | - |
| 1778132496 | 12.78° C | 80% | 992.1 hPa | - | - | - | - |
| 1778130696 | 11.67° C | 86% | 992 hPa | - | - | - | - |
| 1778127095 | 10° C | 99% | 991.4 hPa | - | - | - | - |
| 1778126495 | 9.44° C | 99% | 991.4 hPa | - | - | - | - |
| 1778112095 | 11.11° C | 86% | 989.9 hPa | - | - | - | - |
| 1778105495 | 13.89° C | 76% | 989.6 hPa | - | - | - | - |
| 1778104296 | 15° C | 68% | 989.8 hPa | - | - | - | - |
| 1778101895 | 16.11° C | 63% | 989.5 hPa | - | - | - | - |
| 1778094693 | 19.44° C | 50% | 988.8 hPa | - | - | - | - |
| 1778094093 | 20° C | 49% | 988.7 hPa | - | - | - | - |
| 1778091691 | 20.56° C | 47% | 988.3 hPa | - | - | - | - |
| 1778089291 | 22.22° C | 44% | 988 hPa | - | - | - | - |
| 1778086291 | 27.22° C | 32% | 987.7 hPa | - | - | - | - |
| 1778082691 | 33.89° C | 23% | 987.7 hPa | - | - | - | - |
* Rain since midnight (hover to see other rain measurements)
** Current wind speed in m/s (hover to see current wind gust speed)